sensor_id;sensor_type;location;lat;lon;timestamp;temperature;humidity
54429;DHT22;40337;52.978;6.310;2023-03-01T00:02:05;0.10;99.90
54429;DHT22;40337;52.978;6.310;2023-03-01T00:04:31;0.20;99.90
54429;DHT22;40337;52.978;6.310;2023-03-01T00:06:57;0.10;99.90
54429;DHT22;40337;52.978;6.310;2023-03-01T00:09:23;0.20;99.90
54429;DHT22;40337;52.978;6.310;2023-03-01T00:11:48;0.20;99.90
54429;DHT22;40337;52.978;6.310;2023-03-01T00:14:14;0.20;99.90
54429;DHT22;40337;52.978;6.310;2023-03-01T00:16:43;0.20;99.90
54429;DHT22;40337;52.978;6.310;2023-03-01T00:19:19;0.10;99.90
54429;DHT22;40337;52.978;6.310;2023-03-01T00:21:46;0.10;99.90
54429;DHT22;40337;52.978;6.310;2023-03-01T00:24:12;0.10;99.90
54429;DHT22;40337;52.978;6.310;2023-03-01T00:26:37;0.10;99.90
54429;DHT22;40337;52.978;6.310;2023-03-01T00:29:03;0.00;99.90
54429;DHT22;40337;52.978;6.310;2023-03-01T00:31:31;0.00;99.90
54429;DHT22;40337;52.978;6.310;2023-03-01T00:34:00;0.00;99.90
54429;DHT22;40337;52.978;6.310;2023-03-01T00:36:28;0.00;99.90
54429;DHT22;40337;52.978;6.310;2023-03-01T00:38:54;0.00;99.90
54429;DHT22;40337;52.978;6.310;2023-03-01T00:41:20;0.00;99.90
54429;DHT22;40337;52.978;6.310;2023-03-01T00:43:48;0.00;99.90
54429;DHT22;40337;52.978;6.310;2023-03-01T00:46:18;0.10;99.90
54429;DHT22;40337;52.978;6.310;2023-03-01T00:48:44;0.00;99.90
54429;DHT22;40337;52.978;6.310;2023-03-01T00:51:22;0.00;99.90
54429;DHT22;40337;52.978;6.310;2023-03-01T00:53:51;0.00;99.90
54429;DHT22;40337;52.978;6.310;2023-03-01T00:56:17;-0.10;99.90
54429;DHT22;40337;52.978;6.310;2023-03-01T00:58:43;-0.10;99.90
54429;DHT22;40337;52.978;6.310;2023-03-01T01:01:14;-0.10;99.90
54429;DHT22;40337;52.978;6.310;2023-03-01T01:06:21;0.00;99.90
54429;DHT22;40337;52.978;6.310;2023-03-01T01:08:48;-0.10;99.90
54429;DHT22;40337;52.978;6.310;2023-03-01T01:11:14;-0.10;99.90
54429;DHT22;40337;52.978;6.310;2023-03-01T01:13:41;-0.10;99.90
54429;DHT22;40337;52.978;6.310;2023-03-01T01:16:07;-0.10;99.90
54429;DHT22;40337;52.978;6.310;2023-03-01T01:18:33;-0.10;99.90
54429;DHT22;40337;52.978;6.310;2023-03-01T01:21:04;-0.10;99.90
54429;DHT22;40337;52.978;6.310;2023-03-01T01:23:30;-0.20;99.90
54429;DHT22;40337;52.978;6.310;2023-03-01T01:25:56;-0.30;99.90
54429;DHT22;40337;52.978;6.310;2023-03-01T01:28:22;-0.30;99.90
54429;DHT22;40337;52.978;6.310;2023-03-01T01:30:47;-0.50;99.90
54429;DHT22;40337;52.978;6.310;2023-03-01T01:33:13;-0.70;99.90
54429;DHT22;40337;52.978;6.310;2023-03-01T01:35:38;-0.70;99.90
54429;DHT22;40337;52.978;6.310;2023-03-01T01:38:04;-0.90;99.90
54429;DHT22;40337;52.978;6.310;2023-03-01T01:40:29;-0.90;99.90
54429;DHT22;40337;52.978;6.310;2023-03-01T01:42:55;-0.90;99.90
54429;DHT22;40337;52.978;6.310;2023-03-01T01:45:33;-0.90;99.90
54429;DHT22;40337;52.978;6.310;2023-03-01T01:48:13;-0.90;99.90
54429;DHT22;40337;52.978;6.310;2023-03-01T01:50:40;-1.00;99.90
54429;DHT22;40337;52.978;6.310;2023-03-01T01:53:15;-1.10;99.90
54429;DHT22;40337;52.978;6.310;2023-03-01T01:55:47;-1.00;99.90
54429;DHT22;40337;52.978;6.310;2023-03-01T01:58:18;-1.00;99.90
54429;DHT22;40337;52.978;6.310;2023-03-01T02:00:44;-0.90;99.90
54429;DHT22;40337;52.978;6.310;2023-03-01T02:03:13;-0.90;99.90
54429;DHT22;40337;52.978;6.310;2023-03-01T02:08:17;-0.80;99.90
54429;DHT22;40337;52.978;6.310;2023-03-01T02:10:44;-0.80;99.90
54429;DHT22;40337;52.978;6.310;2023-03-01T02:13:10;-0.80;99.90
54429;DHT22;40337;52.978;6.310;2023-03-01T02:15:38;-0.70;99.90
54429;DHT22;40337;52.978;6.310;2023-03-01T02:18:06;-0.70;99.90
54429;DHT22;40337;52.978;6.310;2023-03-01T02:23:45;-0.60;99.90
54429;DHT22;40337;52.978;6.310;2023-03-01T02:26:47;-0.60;99.90
54429;DHT22;40337;52.978;6.310;2023-03-01T02:29:13;-0.50;99.90
54429;DHT22;40337;52.978;6.310;2023-03-01T02:31:39;-0.60;99.90
54429;DHT22;40337;52.978;6.310;2023-03-01T02:34:16;-0.60;99.90
54429;DHT22;40337;52.978;6.310;2023-03-01T02:37:00;-0.60;99.90
54429;DHT22;40337;52.978;6.310;2023-03-01T02:39:33;-0.60;99.90
54429;DHT22;40337;52.978;6.310;2023-03-01T02:41:59;-0.60;99.90
54429;DHT22;40337;52.978;6.310;2023-03-01T02:44:26;-0.60;99.90
54429;DHT22;40337;52.978;6.310;2023-03-01T02:46:55;-0.60;99.90
54429;DHT22;40337;52.978;6.310;2023-03-01T02:49:31;-0.80;99.90
54429;DHT22;40337;52.978;6.310;2023-03-01T02:54:46;-0.90;99.90
54429;DHT22;40337;52.978;6.310;2023-03-01T02:57:14;-1.00;99.90
54429;DHT22;40337;52.978;6.310;2023-03-01T02:59:40;-1.00;99.90
54429;DHT22;40337;52.978;6.310;2023-03-01T03:02:25;-1.10;99.90
54429;DHT22;40337;52.978;6.310;2023-03-01T03:05:06;-1.10;99.90
54429;DHT22;40337;52.978;6.310;2023-03-01T03:07:34;-1.20;99.90
54429;DHT22;40337;52.978;6.310;2023-03-01T03:10:01;-1.20;99.90
54429;DHT22;40337;52.978;6.310;2023-03-01T03:12:27;-1.20;99.90
54429;DHT22;40337;52.978;6.310;2023-03-01T03:14:52;-1.30;99.90
54429;DHT22;40337;52.978;6.310;2023-03-01T03:17:18;-1.30;99.90
54429;DHT22;40337;52.978;6.310;2023-03-01T03:19:43;-1.30;99.90
54429;DHT22;40337;52.978;6.310;2023-03-01T03:22:11;-1.30;99.90
54429;DHT22;40337;52.978;6.310;2023-03-01T03:24:37;-1.30;99.90
54429;DHT22;40337;52.978;6.310;2023-03-01T03:27:04;-1.40;99.90
54429;DHT22;40337;52.978;6.310;2023-03-01T03:29:30;-1.50;99.90
54429;DHT22;40337;52.978;6.310;2023-03-01T03:31:56;-1.50;99.90
54429;DHT22;40337;52.978;6.310;2023-03-01T03:34:21;-1.60;99.90
54429;DHT22;40337;52.978;6.310;2023-03-01T03:36:47;-1.60;99.90
54429;DHT22;40337;52.978;6.310;2023-03-01T03:39:12;-1.60;99.90
54429;DHT22;40337;52.978;6.310;2023-03-01T03:41:38;-1.60;99.90
54429;DHT22;40337;52.978;6.310;2023-03-01T03:44:04;-1.60;99.90
54429;DHT22;40337;52.978;6.310;2023-03-01T03:46:29;-1.60;99.90
54429;DHT22;40337;52.978;6.310;2023-03-01T03:48:55;-1.60;99.90
54429;DHT22;40337;52.978;6.310;2023-03-01T03:51:21;-1.60;99.90
54429;DHT22;40337;52.978;6.310;2023-03-01T03:53:48;-1.70;99.90
54429;DHT22;40337;52.978;6.310;2023-03-01T03:56:14;-1.60;99.90
54429;DHT22;40337;52.978;6.310;2023-03-01T03:58:39;-1.60;99.90
54429;DHT22;40337;52.978;6.310;2023-03-01T04:01:05;-1.50;99.90
54429;DHT22;40337;52.978;6.310;2023-03-01T04:03:32;-1.50;99.90
54429;DHT22;40337;52.978;6.310;2023-03-01T04:05:59;-1.50;99.90
54429;DHT22;40337;52.978;6.310;2023-03-01T04:08:25;-1.50;99.90
54429;DHT22;40337;52.978;6.310;2023-03-01T04:10:55;-1.50;99.90
54429;DHT22;40337;52.978;6.310;2023-03-01T04:13:22;-1.60;99.90
54429;DHT22;40337;52.978;6.310;2023-03-01T04:15:51;-1.70;99.90
54429;DHT22;40337;52.978;6.310;2023-03-01T04:18:19;-1.70;99.90
54429;DHT22;40337;52.978;6.310;2023-03-01T04:20:45;-1.70;99.90
54429;DHT22;40337;52.978;6.310;2023-03-01T04:23:18;-1.80;99.90
54429;DHT22;40337;52.978;6.310;2023-03-01T04:25:53;-1.80;99.90
54429;DHT22;40337;52.978;6.310;2023-03-01T04:30:53;-1.90;99.90
54429;DHT22;40337;52.978;6.310;2023-03-01T04:33:19;-1.90;99.90
54429;DHT22;40337;52.978;6.310;2023-03-01T04:35:45;-1.90;99.90
54429;DHT22;40337;52.978;6.310;2023-03-01T04:38:11;-1.90;99.90
54429;DHT22;40337;52.978;6.310;2023-03-01T04:40:37;-2.00;99.90
54429;DHT22;40337;52.978;6.310;2023-03-01T04:43:03;-2.00;99.90
54429;DHT22;40337;52.978;6.310;2023-03-01T04:45:30;-2.00;99.90
54429;DHT22;40337;52.978;6.310;2023-03-01T04:47:56;-2.10;99.90
54429;DHT22;40337;52.978;6.310;2023-03-01T04:50:24;-2.20;99.90
54429;DHT22;40337;52.978;6.310;2023-03-01T04:52:51;-2.20;99.90
54429;DHT22;40337;52.978;6.310;2023-03-01T04:55:16;-2.10;99.90
54429;DHT22;40337;52.978;6.310;2023-03-01T04:57:42;-2.20;99.90
54429;DHT22;40337;52.978;6.310;2023-03-01T05:00:11;-2.20;99.90
54429;DHT22;40337;52.978;6.310;2023-03-01T05:05:19;-2.30;99.90
54429;DHT22;40337;52.978;6.310;2023-03-01T05:07:45;-2.20;99.90
54429;DHT22;40337;52.978;6.310;2023-03-01T05:10:10;-2.20;99.90
54429;DHT22;40337;52.978;6.310;2023-03-01T05:12:36;-2.20;99.90
54429;DHT22;40337;52.978;6.310;2023-03-01T05:15:03;-2.10;99.90
54429;DHT22;40337;52.978;6.310;2023-03-01T05:17:33;-2.10;99.90
54429;DHT22;40337;52.978;6.310;2023-03-01T05:19:58;-2.10;99.90
54429;DHT22;40337;52.978;6.310;2023-03-01T05:22:25;-2.10;99.90
54429;DHT22;40337;52.978;6.310;2023-03-01T05:24:50;-2.20;99.90
54429;DHT22;40337;52.978;6.310;2023-03-01T05:27:16;-2.20;99.90
54429;DHT22;40337;52.978;6.310;2023-03-01T05:29:41;-2.20;99.90
54429;DHT22;40337;52.978;6.310;2023-03-01T05:32:07;-2.20;99.90
54429;DHT22;40337;52.978;6.310;2023-03-01T05:34:35;-2.20;99.90
54429;DHT22;40337;52.978;6.310;2023-03-01T05:37:01;-2.20;99.90
54429;DHT22;40337;52.978;6.310;2023-03-01T05:39:29;-2.30;99.90
54429;DHT22;40337;52.978;6.310;2023-03-01T05:41:56;-2.30;99.90
54429;DHT22;40337;52.978;6.310;2023-03-01T05:44:23;-2.30;99.90
54429;DHT22;40337;52.978;6.310;2023-03-01T05:46:49;-2.20;99.90
54429;DHT22;40337;52.978;6.310;2023-03-01T05:49:15;-2.20;99.90
54429;DHT22;40337;52.978;6.310;2023-03-01T05:51:42;-2.10;99.90
54429;DHT22;40337;52.978;6.310;2023-03-01T05:54:09;-2.20;99.90
54429;DHT22;40337;52.978;6.310;2023-03-01T05:56:37;-2.20;99.90
54429;DHT22;40337;52.978;6.310;2023-03-01T05:59:03;-2.20;99.90
54429;DHT22;40337;52.978;6.310;2023-03-01T06:01:30;-2.20;99.90
54429;DHT22;40337;52.978;6.310;2023-03-01T06:03:56;-2.20;99.90
54429;DHT22;40337;52.978;6.310;2023-03-01T06:06:22;-2.20;99.90
54429;DHT22;40337;52.978;6.310;2023-03-01T06:08:49;-2.20;99.90
54429;DHT22;40337;52.978;6.310;2023-03-01T06:11:15;-2.30;99.90
54429;DHT22;40337;52.978;6.310;2023-03-01T06:13:44;-2.30;99.90
54429;DHT22;40337;52.978;6.310;2023-03-01T06:16:11;-2.20;99.90
54429;DHT22;40337;52.978;6.310;2023-03-01T06:18:37;-2.20;99.90
54429;DHT22;40337;52.978;6.310;2023-03-01T06:21:04;-2.20;99.90
54429;DHT22;40337;52.978;6.310;2023-03-01T06:23:30;-2.20;99.90
54429;DHT22;40337;52.978;6.310;2023-03-01T06:25:56;-2.10;99.90
54429;DHT22;40337;52.978;6.310;2023-03-01T06:28:21;-2.10;99.90
54429;DHT22;40337;52.978;6.310;2023-03-01T06:30:47;-2.10;99.90
54429;DHT22;40337;52.978;6.310;2023-03-01T06:33:13;-2.10;99.90
54429;DHT22;40337;52.978;6.310;2023-03-01T06:35:39;-2.00;99.90
54429;DHT22;40337;52.978;6.310;2023-03-01T06:38:05;-2.10;99.90
54429;DHT22;40337;52.978;6.310;2023-03-01T06:40:31;-2.00;99.90
54429;DHT22;40337;52.978;6.310;2023-03-01T06:42:57;-2.00;99.90
54429;DHT22;40337;52.978;6.310;2023-03-01T06:45:23;-2.00;99.90
54429;DHT22;40337;52.978;6.310;2023-03-01T06:47:49;-2.00;99.90
54429;DHT22;40337;52.978;6.310;2023-03-01T06:50:15;-1.90;99.90
54429;DHT22;40337;52.978;6.310;2023-03-01T06:52:41;-1.90;99.90
54429;DHT22;40337;52.978;6.310;2023-03-01T06:55:09;-1.90;99.90
54429;DHT22;40337;52.978;6.310;2023-03-01T06:57:35;-1.90;99.90
54429;DHT22;40337;52.978;6.310;2023-03-01T07:00:00;-1.80;99.90
54429;DHT22;40337;52.978;6.310;2023-03-01T07:02:26;-1.80;99.90
54429;DHT22;40337;52.978;6.310;2023-03-01T07:04:51;-1.90;99.90
54429;DHT22;40337;52.978;6.310;2023-03-01T07:07:18;-1.90;99.90
54429;DHT22;40337;52.978;6.310;2023-03-01T07:09:46;-1.90;99.90
54429;DHT22;40337;52.978;6.310;2023-03-01T07:12:13;-1.80;99.90
54429;DHT22;40337;52.978;6.310;2023-03-01T07:14:39;-1.80;99.90
54429;DHT22;40337;52.978;6.310;2023-03-01T07:17:04;-1.70;99.90
54429;DHT22;40337;52.978;6.310;2023-03-01T07:19:30;-1.60;99.90
54429;DHT22;40337;52.978;6.310;2023-03-01T07:21:55;-1.60;99.90
54429;DHT22;40337;52.978;6.310;2023-03-01T07:24:21;-1.50;99.90
54429;DHT22;40337;52.978;6.310;2023-03-01T07:26:50;-1.50;99.90
54429;DHT22;40337;52.978;6.310;2023-03-01T07:29:16;-1.40;99.90
54429;DHT22;40337;52.978;6.310;2023-03-01T07:31:42;-1.30;99.90
54429;DHT22;40337;52.978;6.310;2023-03-01T07:34:08;-1.40;99.90
54429;DHT22;40337;52.978;6.310;2023-03-01T07:36:33;-1.40;99.90
54429;DHT22;40337;52.978;6.310;2023-03-01T07:38:59;-1.40;99.90
54429;DHT22;40337;52.978;6.310;2023-03-01T07:41:27;-1.30;99.90
54429;DHT22;40337;52.978;6.310;2023-03-01T07:43:53;-1.20;99.90
54429;DHT22;40337;52.978;6.310;2023-03-01T07:46:19;-1.20;99.90
54429;DHT22;40337;52.978;6.310;2023-03-01T07:48:44;-1.10;99.90
54429;DHT22;40337;52.978;6.310;2023-03-01T07:51:10;-1.10;99.90
54429;DHT22;40337;52.978;6.310;2023-03-01T07:53:36;-1.00;99.90
54429;DHT22;40337;52.978;6.310;2023-03-01T07:56:07;-0.80;99.90
54429;DHT22;40337;52.978;6.310;2023-03-01T07:58:41;-0.70;99.90
54429;DHT22;40337;52.978;6.310;2023-03-01T08:01:09;-0.70;99.90
54429;DHT22;40337;52.978;6.310;2023-03-01T08:03:36;-0.60;99.90
54429;DHT22;40337;52.978;6.310;2023-03-01T08:06:03;-0.60;99.90
54429;DHT22;40337;52.978;6.310;2023-03-01T08:08:29;-0.60;99.90
54429;DHT22;40337;52.978;6.310;2023-03-01T08:11:02;-0.40;99.90
54429;DHT22;40337;52.978;6.310;2023-03-01T08:13:28;-0.30;99.90
54429;DHT22;40337;52.978;6.310;2023-03-01T08:15:54;-0.20;99.90
54429;DHT22;40337;52.978;6.310;2023-03-01T08:18:20;0.00;99.90
54429;DHT22;40337;52.978;6.310;2023-03-01T08:20:46;0.30;99.90
54429;DHT22;40337;52.978;6.310;2023-03-01T08:23:11;0.60;99.90
54429;DHT22;40337;52.978;6.310;2023-03-01T08:25:38;0.90;99.90
54429;DHT22;40337;52.978;6.310;2023-03-01T08:28:04;1.20;99.90
54429;DHT22;40337;52.978;6.310;2023-03-01T08:30:30;1.40;99.90
54429;DHT22;40337;52.978;6.310;2023-03-01T08:32:56;1.50;99.90
54429;DHT22;40337;52.978;6.310;2023-03-01T08:35:22;1.70;99.90
54429;DHT22;40337;52.978;6.310;2023-03-01T08:37:47;1.80;99.90
54429;DHT22;40337;52.978;6.310;2023-03-01T08:40:13;1.90;99.90
54429;DHT22;40337;52.978;6.310;2023-03-01T08:42:40;2.10;99.90
54429;DHT22;40337;52.978;6.310;2023-03-01T08:45:07;2.30;99.90
54429;DHT22;40337;52.978;6.310;2023-03-01T08:47:32;2.40;99.90
54429;DHT22;40337;52.978;6.310;2023-03-01T08:49:59;2.50;99.90
54429;DHT22;40337;52.978;6.310;2023-03-01T08:52:25;2.50;99.90
54429;DHT22;40337;52.978;6.310;2023-03-01T08:54:51;2.70;99.90
54429;DHT22;40337;52.978;6.310;2023-03-01T08:57:17;3.10;99.90
54429;DHT22;40337;52.978;6.310;2023-03-01T08:59:42;3.30;99.90
54429;DHT22;40337;52.978;6.310;2023-03-01T09:02:13;3.60;99.90
54429;DHT22;40337;52.978;6.310;2023-03-01T09:04:39;4.00;99.90
54429;DHT22;40337;52.978;6.310;2023-03-01T09:07:05;4.10;99.90
54429;DHT22;40337;52.978;6.310;2023-03-01T09:09:31;4.30;99.90
54429;DHT22;40337;52.978;6.310;2023-03-01T09:11:56;4.40;99.90
54429;DHT22;40337;52.978;6.310;2023-03-01T09:14:22;4.50;99.90
54429;DHT22;40337;52.978;6.310;2023-03-01T09:16:47;4.60;99.90
54429;DHT22;40337;52.978;6.310;2023-03-01T09:19:13;4.80;99.90
54429;DHT22;40337;52.978;6.310;2023-03-01T09:21:39;4.90;99.90
54429;DHT22;40337;52.978;6.310;2023-03-01T09:24:06;5.20;99.90
54429;DHT22;40337;52.978;6.310;2023-03-01T09:26:36;5.40;99.90
54429;DHT22;40337;52.978;6.310;2023-03-01T09:29:02;5.50;99.90
54429;DHT22;40337;52.978;6.310;2023-03-01T09:31:28;5.60;99.90
54429;DHT22;40337;52.978;6.310;2023-03-01T09:33:53;5.60;99.90
54429;DHT22;40337;52.978;6.310;2023-03-01T09:36:22;5.60;99.90
54429;DHT22;40337;52.978;6.310;2023-03-01T09:38:49;5.70;99.90
54429;DHT22;40337;52.978;6.310;2023-03-01T09:44:03;6.10;99.90
54429;DHT22;40337;52.978;6.310;2023-03-01T09:46:40;6.20;99.90
54429;DHT22;40337;52.978;6.310;2023-03-01T09:49:22;6.70;99.90
54429;DHT22;40337;52.978;6.310;2023-03-01T09:55:20;7.50;99.90
54429;DHT22;40337;52.978;6.310;2023-03-01T09:58:06;7.50;99.90
54429;DHT22;40337;52.978;6.310;2023-03-01T10:00:44;7.70;99.90
54429;DHT22;40337;52.978;6.310;2023-03-01T10:06:01;8.40;99.90
54429;DHT22;40337;52.978;6.310;2023-03-01T10:11:22;9.90;99.90
54429;DHT22;40337;52.978;6.310;2023-03-01T10:17:03;10.40;99.90
54429;DHT22;40337;52.978;6.310;2023-03-01T10:19:38;10.50;99.90
54429;DHT22;40337;52.978;6.310;2023-03-01T10:22:13;10.80;99.90
54429;DHT22;40337;52.978;6.310;2023-03-01T10:24:38;11.20;99.90
54429;DHT22;40337;52.978;6.310;2023-03-01T10:27:25;11.50;99.90
54429;DHT22;40337;52.978;6.310;2023-03-01T10:30:12;11.70;97.40
54429;DHT22;40337;52.978;6.310;2023-03-01T10:32:42;11.50;98.60
54429;DHT22;40337;52.978;6.310;2023-03-01T10:35:20;11.10;99.40
54429;DHT22;40337;52.978;6.310;2023-03-01T10:37:57;10.70;98.20
54429;DHT22;40337;52.978;6.310;2023-03-01T10:40:23;10.20;99.50
54429;DHT22;40337;52.978;6.310;2023-03-01T10:42:49;10.00;99.60
54429;DHT22;40337;52.978;6.310;2023-03-01T10:45:16;9.70;99.90
54429;DHT22;40337;52.978;6.310;2023-03-01T10:47:42;9.50;99.90
54429;DHT22;40337;52.978;6.310;2023-03-01T10:50:20;9.60;99.90
54429;DHT22;40337;52.978;6.310;2023-03-01T10:52:58;9.90;98.90
54429;DHT22;40337;52.978;6.310;2023-03-01T10:55:29;10.30;98.50
54429;DHT22;40337;52.978;6.310;2023-03-01T11:00:32;10.60;97.20
54429;DHT22;40337;52.978;6.310;2023-03-01T11:05:25;10.90;96.80
54429;DHT22;40337;52.978;6.310;2023-03-01T11:10:21;11.40;95.40
54429;DHT22;40337;52.978;6.310;2023-03-01T11:12:47;11.30;96.00
54429;DHT22;40337;52.978;6.310;2023-03-01T11:15:27;11.10;96.00
54429;DHT22;40337;52.978;6.310;2023-03-01T11:17:54;11.00;96.50
54429;DHT22;40337;52.978;6.310;2023-03-01T11:20:35;11.20;96.20
54429;DHT22;40337;52.978;6.310;2023-03-01T11:23:13;11.40;96.50
54429;DHT22;40337;52.978;6.310;2023-03-01T11:25:58;11.60;95.70
54429;DHT22;40337;52.978;6.310;2023-03-01T11:28:25;11.70;94.80
54429;DHT22;40337;52.978;6.310;2023-03-01T11:38:29;12.10;93.20
54429;DHT22;40337;52.978;6.310;2023-03-01T11:41:02;12.40;92.70
54429;DHT22;40337;52.978;6.310;2023-03-01T11:43:38;12.90;92.00
54429;DHT22;40337;52.978;6.310;2023-03-01T11:55:07;15.40;82.40
54429;DHT22;40337;52.978;6.310;2023-03-01T12:00:44;15.50;77.50
54429;DHT22;40337;52.978;6.310;2023-03-01T12:09:12;15.80;73.90
54429;DHT22;40337;52.978;6.310;2023-03-01T12:12:01;15.90;73.00
54429;DHT22;40337;52.978;6.310;2023-03-01T12:15:11;16.00;71.50
54429;DHT22;40337;52.978;6.310;2023-03-01T12:25:45;15.90;71.00
54429;DHT22;40337;52.978;6.310;2023-03-01T12:28:35;15.60;70.20
54429;DHT22;40337;52.978;6.310;2023-03-01T12:31:32;15.70;69.80
54429;DHT22;40337;52.978;6.310;2023-03-01T12:39:27;15.10;68.30
54429;DHT22;40337;52.978;6.310;2023-03-01T12:42:17;14.60;70.60
54429;DHT22;40337;52.978;6.310;2023-03-01T12:47:51;14.20;75.50
54429;DHT22;40337;52.978;6.310;2023-03-01T12:50:23;14.00;75.40
54429;DHT22;40337;52.978;6.310;2023-03-01T12:52:57;13.80;76.90
54429;DHT22;40337;52.978;6.310;2023-03-01T12:55:31;13.50;78.30
54429;DHT22;40337;52.978;6.310;2023-03-01T13:03:21;12.70;81.30
54429;DHT22;40337;52.978;6.310;2023-03-01T13:06:09;12.30;82.80
54429;DHT22;40337;52.978;6.310;2023-03-01T13:08:39;12.00;84.20
54429;DHT22;40337;52.978;6.310;2023-03-01T13:11:15;11.90;85.90
54429;DHT22;40337;52.978;6.310;2023-03-01T13:13:42;11.80;87.40
54429;DHT22;40337;52.978;6.310;2023-03-01T13:19:10;11.70;87.60
54429;DHT22;40337;52.978;6.310;2023-03-01T13:21:37;11.80;87.30
54429;DHT22;40337;52.978;6.310;2023-03-01T13:24:02;11.70;88.40
54429;DHT22;40337;52.978;6.310;2023-03-01T13:26:28;11.80;89.70
54429;DHT22;40337;52.978;6.310;2023-03-01T13:28:54;11.80;88.40
54429;DHT22;40337;52.978;6.310;2023-03-01T13:33:52;11.70;89.80
54429;DHT22;40337;52.978;6.310;2023-03-01T13:44:33;11.50;90.40
54429;DHT22;40337;52.978;6.310;2023-03-01T13:52:31;11.50;90.70
54429;DHT22;40337;52.978;6.310;2023-03-01T13:54:59;11.60;91.60
54429;DHT22;40337;52.978;6.310;2023-03-01T13:57:32;11.40;91.50
54429;DHT22;40337;52.978;6.310;2023-03-01T13:59:59;11.40;90.80
54429;DHT22;40337;52.978;6.310;2023-03-01T14:02:24;11.40;90.90
54429;DHT22;40337;52.978;6.310;2023-03-01T14:04:58;11.30;91.50
54429;DHT22;40337;52.978;6.310;2023-03-01T14:07:24;11.30;91.40
54429;DHT22;40337;52.978;6.310;2023-03-01T14:09:56;11.10;91.60
54429;DHT22;40337;52.978;6.310;2023-03-01T14:17:55;11.10;92.00
54429;DHT22;40337;52.978;6.310;2023-03-01T14:20:25;11.10;92.80
54429;DHT22;40337;52.978;6.310;2023-03-01T14:22:54;11.00;93.10
54429;DHT22;40337;52.978;6.310;2023-03-01T14:25:23;10.90;93.80
54429;DHT22;40337;52.978;6.310;2023-03-01T14:30:48;11.00;93.30
54429;DHT22;40337;52.978;6.310;2023-03-01T14:33:34;10.90;94.00
54429;DHT22;40337;52.978;6.310;2023-03-01T14:36:04;10.80;94.00
54429;DHT22;40337;52.978;6.310;2023-03-01T14:41:03;10.80;94.30
54429;DHT22;40337;52.978;6.310;2023-03-01T14:43:30;10.60;94.50
54429;DHT22;40337;52.978;6.310;2023-03-01T14:45:56;10.60;94.40
54429;DHT22;40337;52.978;6.310;2023-03-01T14:48:22;10.50;95.00
54429;DHT22;40337;52.978;6.310;2023-03-01T14:50:50;10.50;94.90
54429;DHT22;40337;52.978;6.310;2023-03-01T14:53:21;10.40;95.00
54429;DHT22;40337;52.978;6.310;2023-03-01T14:55:52;10.40;94.90
54429;DHT22;40337;52.978;6.310;2023-03-01T14:58:24;10.30;95.00
54429;DHT22;40337;52.978;6.310;2023-03-01T15:00:59;10.20;95.30
54429;DHT22;40337;52.978;6.310;2023-03-01T15:03:45;10.10;95.50
54429;DHT22;40337;52.978;6.310;2023-03-01T15:06:15;10.00;96.40
54429;DHT22;40337;52.978;6.310;2023-03-01T15:08:44;10.00;96.50
54429;DHT22;40337;52.978;6.310;2023-03-01T15:11:43;9.90;96.80
54429;DHT22;40337;52.978;6.310;2023-03-01T15:14:28;9.80;97.60
54429;DHT22;40337;52.978;6.310;2023-03-01T15:16:54;9.70;98.40
54429;DHT22;40337;52.978;6.310;2023-03-01T15:19:22;9.60;98.10
54429;DHT22;40337;52.978;6.310;2023-03-01T15:21:49;9.60;98.20
54429;DHT22;40337;52.978;6.310;2023-03-01T15:24:23;9.50;98.30
54429;DHT22;40337;52.978;6.310;2023-03-01T15:26:56;9.40;98.30
54429;DHT22;40337;52.978;6.310;2023-03-01T15:29:28;9.40;98.70
54429;DHT22;40337;52.978;6.310;2023-03-01T15:32:20;9.30;99.00
54429;DHT22;40337;52.978;6.310;2023-03-01T15:34:48;9.30;99.00
54429;DHT22;40337;52.978;6.310;2023-03-01T15:40:02;9.10;99.40
54429;DHT22;40337;52.978;6.310;2023-03-01T15:45:09;9.00;99.90
54429;DHT22;40337;52.978;6.310;2023-03-01T15:47:36;9.00;99.90
54429;DHT22;40337;52.978;6.310;2023-03-01T15:50:04;8.90;99.90
54429;DHT22;40337;52.978;6.310;2023-03-01T15:52:40;8.80;99.90
54429;DHT22;40337;52.978;6.310;2023-03-01T15:55:29;8.80;99.90
54429;DHT22;40337;52.978;6.310;2023-03-01T15:58:05;8.60;99.90
54429;DHT22;40337;52.978;6.310;2023-03-01T16:00:34;8.50;99.90
54429;DHT22;40337;52.978;6.310;2023-03-01T16:02:59;8.50;99.90
54429;DHT22;40337;52.978;6.310;2023-03-01T16:05:28;8.40;99.90
54429;DHT22;40337;52.978;6.310;2023-03-01T16:07:54;8.40;99.90
54429;DHT22;40337;52.978;6.310;2023-03-01T16:10:20;8.40;99.90
54429;DHT22;40337;52.978;6.310;2023-03-01T16:12:46;8.40;99.90
54429;DHT22;40337;52.978;6.310;2023-03-01T16:15:17;8.30;99.90
54429;DHT22;40337;52.978;6.310;2023-03-01T16:17:43;8.20;99.90
54429;DHT22;40337;52.978;6.310;2023-03-01T16:20:09;8.20;99.90
54429;DHT22;40337;52.978;6.310;2023-03-01T16:22:35;8.00;99.90
54429;DHT22;40337;52.978;6.310;2023-03-01T16:25:00;8.00;99.90
54429;DHT22;40337;52.978;6.310;2023-03-01T16:27:27;7.90;99.90
54429;DHT22;40337;52.978;6.310;2023-03-01T16:29:53;7.90;99.90
54429;DHT22;40337;52.978;6.310;2023-03-01T16:32:18;7.80;99.90
54429;DHT22;40337;52.978;6.310;2023-03-01T16:34:44;7.70;99.90
54429;DHT22;40337;52.978;6.310;2023-03-01T16:37:10;7.60;99.90
54429;DHT22;40337;52.978;6.310;2023-03-01T16:39:38;7.50;99.90
54429;DHT22;40337;52.978;6.310;2023-03-01T16:42:04;7.40;99.90
54429;DHT22;40337;52.978;6.310;2023-03-01T16:44:29;7.30;99.90
54429;DHT22;40337;52.978;6.310;2023-03-01T16:46:55;7.20;99.90
54429;DHT22;40337;52.978;6.310;2023-03-01T16:49:21;7.10;99.90
54429;DHT22;40337;52.978;6.310;2023-03-01T16:51:46;7.00;99.90
54429;DHT22;40337;52.978;6.310;2023-03-01T16:54:12;6.90;99.90
54429;DHT22;40337;52.978;6.310;2023-03-01T16:56:38;6.70;99.90
54429;DHT22;40337;52.978;6.310;2023-03-01T16:59:05;6.60;99.90
54429;DHT22;40337;52.978;6.310;2023-03-01T17:01:31;6.60;99.90
54429;DHT22;40337;52.978;6.310;2023-03-01T17:04:03;6.50;99.90
54429;DHT22;40337;52.978;6.310;2023-03-01T17:06:28;6.30;99.90
54429;DHT22;40337;52.978;6.310;2023-03-01T17:08:54;6.20;99.90
54429;DHT22;40337;52.978;6.310;2023-03-01T17:11:20;6.10;99.90
54429;DHT22;40337;52.978;6.310;2023-03-01T17:13:46;6.00;99.90
54429;DHT22;40337;52.978;6.310;2023-03-01T17:16:14;5.90;99.90
54429;DHT22;40337;52.978;6.310;2023-03-01T17:18:41;5.80;99.90
54429;DHT22;40337;52.978;6.310;2023-03-01T17:21:07;5.70;99.90
54429;DHT22;40337;52.978;6.310;2023-03-01T17:23:34;5.60;99.90
54429;DHT22;40337;52.978;6.310;2023-03-01T17:26:00;5.60;99.90
54429;DHT22;40337;52.978;6.310;2023-03-01T17:28:28;5.50;99.90
54429;DHT22;40337;52.978;6.310;2023-03-01T17:30:54;5.30;99.90
54429;DHT22;40337;52.978;6.310;2023-03-01T17:33:20;5.30;99.90
54429;DHT22;40337;52.978;6.310;2023-03-01T17:35:47;5.20;99.90
54429;DHT22;40337;52.978;6.310;2023-03-01T17:38:13;5.10;99.90
54429;DHT22;40337;52.978;6.310;2023-03-01T17:40:43;5.00;99.90
54429;DHT22;40337;52.978;6.310;2023-03-01T17:43:12;4.90;99.90
54429;DHT22;40337;52.978;6.310;2023-03-01T17:45:38;4.90;99.90
54429;DHT22;40337;52.978;6.310;2023-03-01T17:48:05;4.90;99.90